createdAt,value
2023-08-20T00:02:08.958Z,13.57
2023-08-20T00:04:38.339Z,14.20
2023-08-20T00:07:06.308Z,16.05
2023-08-20T00:09:34.196Z,16.65
2023-08-20T00:12:03.521Z,17.45
2023-08-20T00:15:10.043Z,18.05
2023-08-20T00:17:41.037Z,16.40
2023-08-20T00:20:11.513Z,14.77
2023-08-20T00:22:44.741Z,16.02
2023-08-20T00:25:17.198Z,15.02
2023-08-20T00:27:45.575Z,15.40
2023-08-20T00:30:13.677Z,13.65
2023-08-20T00:32:41.525Z,13.88
2023-08-20T00:35:09.195Z,15.57
2023-08-20T00:37:38.143Z,15.13
2023-08-20T00:40:07.145Z,16.17
2023-08-20T00:42:34.563Z,14.77
2023-08-20T00:45:01.929Z,15.75
2023-08-20T00:47:29.825Z,15.60
2023-08-20T00:49:58.025Z,14.98
2023-08-20T00:52:26.985Z,15.68
2023-08-20T00:54:55.739Z,17.27
2023-08-20T00:57:24.888Z,15.43
2023-08-20T00:59:52.510Z,15.60
2023-08-20T01:02:21.687Z,16.25
2023-08-20T01:04:50.663Z,18.38
2023-08-20T01:08:05.244Z,19.42
2023-08-20T01:10:53.307Z,15.00
2023-08-20T01:13:20.845Z,18.02
2023-08-20T01:15:48.283Z,17.60
2023-08-20T01:18:15.742Z,21.70
2023-08-20T01:20:59.398Z,19.70
2023-08-20T01:23:57.346Z,19.35
2023-08-20T01:27:18.817Z,20.88
2023-08-20T01:29:47.021Z,23.05
2023-08-20T01:32:15.136Z,22.15
2023-08-20T01:34:42.891Z,20.42
2023-08-20T01:37:10.820Z,20.63
2023-08-20T01:39:38.169Z,22.25
2023-08-20T01:42:07.245Z,20.17
2023-08-20T01:44:34.728Z,19.23
2023-08-20T01:47:03.375Z,19.75
2023-08-20T01:49:30.676Z,16.67
2023-08-20T01:51:58.009Z,21.88
2023-08-20T01:54:25.424Z,19.88
2023-08-20T01:56:52.927Z,18.77
2023-08-20T01:59:22.937Z,21.60
2023-08-20T02:01:50.315Z,19.40
2023-08-20T02:04:18.920Z,20.23
2023-08-20T02:06:46.362Z,20.50
2023-08-20T02:09:15.053Z,22.70
2023-08-20T02:11:42.431Z,21.13
2023-08-20T02:14:09.794Z,18.90
2023-08-20T02:16:38.003Z,18.13
2023-08-20T02:19:07.727Z,21.15
2023-08-20T02:21:35.405Z,19.33
2023-08-20T02:24:02.818Z,20.27
2023-08-20T02:26:30.127Z,20.95
2023-08-20T02:28:57.502Z,20.17
2023-08-20T02:31:25.101Z,20.33
2023-08-20T02:33:52.517Z,19.92
2023-08-20T02:36:19.913Z,17.63
2023-08-20T02:38:47.545Z,22.63
2023-08-20T02:41:16.311Z,20.15
2023-08-20T02:43:44.112Z,20.63
2023-08-20T02:46:11.517Z,20.85
2023-08-20T02:48:38.957Z,24.00
2023-08-20T02:51:06.307Z,22.02
2023-08-20T02:53:33.829Z,21.77
2023-08-20T02:56:01.205Z,22.95
2023-08-20T02:58:28.549Z,21.33
2023-08-20T03:00:55.862Z,20.75
2023-08-20T03:03:23.280Z,24.35
2023-08-20T03:05:51.486Z,24.05
2023-08-20T03:08:18.974Z,19.25
2023-08-20T03:10:46.543Z,20.55
2023-08-20T03:13:13.899Z,19.08
2023-08-20T03:15:41.464Z,22.60
2023-08-20T03:18:08.926Z,21.67
2023-08-20T03:20:36.491Z,20.20
2023-08-20T03:23:04.033Z,20.42
2023-08-20T03:25:31.361Z,21.48
2023-08-20T03:27:58.639Z,19.25
2023-08-20T03:30:26.036Z,21.60
2023-08-20T03:32:53.710Z,23.08
2023-08-20T03:35:21.128Z,23.98
2023-08-20T03:37:49.339Z,20.95
2023-08-20T03:40:16.907Z,25.05
2023-08-20T03:42:44.233Z,24.10
2023-08-20T03:45:11.572Z,21.63
2023-08-20T03:47:39.161Z,21.77
2023-08-20T03:50:07.394Z,22.88
2023-08-20T03:52:36.072Z,22.73
2023-08-20T03:55:04.939Z,19.23
2023-08-20T03:57:34.526Z,22.85
2023-08-20T04:00:02.122Z,18.13
2023-08-20T04:02:29.810Z,23.92
2023-08-20T04:04:59.572Z,20.40
2023-08-20T04:07:28.607Z,21.92
2023-08-20T04:09:56.122Z,24.80
2023-08-20T04:12:23.611Z,25.52
2023-08-20T04:14:50.970Z,23.75
2023-08-20T04:17:18.708Z,25.95
2023-08-20T04:19:46.230Z,19.90
2023-08-20T04:22:13.584Z,20.88
2023-08-20T04:24:40.976Z,24.45
2023-08-20T04:27:08.650Z,26.52
2023-08-20T04:29:37.280Z,27.30
2023-08-20T04:32:04.919Z,26.88
2023-08-20T04:34:33.257Z,27.52
2023-08-20T04:37:03.351Z,20.15
2023-08-20T04:39:31.857Z,25.77
2023-08-20T04:42:01.362Z,22.83
2023-08-20T04:44:28.966Z,26.00
2023-08-20T04:46:57.791Z,27.45
2023-08-20T04:49:29.646Z,25.77
2023-08-20T04:51:57.216Z,22.58
2023-08-20T04:54:24.567Z,22.85
2023-08-20T04:56:51.943Z,20.92
2023-08-20T04:59:19.344Z,20.70
2023-08-20T05:02:09.485Z,19.23
2023-08-20T05:04:45.276Z,21.77
2023-08-20T05:07:12.899Z,24.35
2023-08-20T05:09:40.210Z,20.90
2023-08-20T05:12:09.024Z,22.73
2023-08-20T05:14:37.462Z,24.50
2023-08-20T05:17:05.199Z,21.55
2023-08-20T05:19:32.867Z,21.05
2023-08-20T05:22:00.833Z,19.30
2023-08-20T05:24:32.774Z,18.88
2023-08-20T05:27:15.764Z,20.33
2023-08-20T05:29:46.047Z,19.52
2023-08-20T05:32:13.654Z,15.57
2023-08-20T05:34:42.291Z,19.05
2023-08-20T05:37:09.937Z,22.45
2023-08-20T05:39:45.734Z,17.95
2023-08-20T05:44:47.402Z,19.35
2023-08-20T05:47:18.921Z,21.02
2023-08-20T05:49:46.446Z,18.10
2023-08-20T05:52:13.792Z,15.77
2023-08-20T05:54:43.370Z,13.13
2023-08-20T05:57:11.058Z,12.95
2023-08-20T05:59:38.452Z,17.00
2023-08-20T06:02:05.996Z,15.93
2023-08-20T06:04:33.546Z,16.58
2023-08-20T06:07:00.869Z,14.15
2023-08-20T06:09:28.206Z,15.48
2023-08-20T06:11:55.536Z,13.77
2023-08-20T06:14:22.929Z,14.70
2023-08-20T06:16:50.289Z,11.15
2023-08-20T06:19:17.695Z,16.27
2023-08-20T06:21:45.008Z,12.50
2023-08-20T06:24:12.513Z,13.65
2023-08-20T06:26:39.917Z,13.57
2023-08-20T06:29:07.259Z,9.90
2023-08-20T06:31:34.795Z,10.63
2023-08-20T06:34:02.306Z,10.38
2023-08-20T06:36:29.658Z,12.98
2023-08-20T06:38:57.010Z,9.13
2023-08-20T06:41:24.965Z,10.90
2023-08-20T06:43:52.423Z,8.70
2023-08-20T06:46:20.381Z,9.27
2023-08-20T06:48:47.813Z,9.70
2023-08-20T06:51:20.004Z,9.18
2023-08-20T06:53:47.366Z,9.25
2023-08-20T06:56:15.075Z,8.10
2023-08-20T06:58:44.525Z,7.78
2023-08-20T07:01:13.705Z,9.80
2023-08-20T07:03:45.842Z,7.97
2023-08-20T07:06:15.478Z,8.10
2023-08-20T07:08:44.018Z,8.35
2023-08-20T07:11:12.466Z,8.07
2023-08-20T07:13:39.907Z,8.07
2023-08-20T07:16:07.297Z,7.00
2023-08-20T07:18:34.684Z,7.70
2023-08-20T07:21:02.081Z,7.63
2023-08-20T07:23:29.778Z,7.05
2023-08-20T07:26:16.034Z,6.88
2023-08-20T07:28:58.690Z,6.60
2023-08-20T07:31:32.266Z,6.80
2023-08-20T07:34:05.939Z,5.88
2023-08-20T07:36:34.134Z,7.18
2023-08-20T07:39:03.264Z,7.63
2023-08-20T07:41:31.475Z,6.00
2023-08-20T07:43:58.850Z,5.22
2023-08-20T07:46:26.582Z,5.85
2023-08-20T07:48:53.979Z,5.95
2023-08-20T07:51:21.381Z,6.93
2023-08-20T07:53:48.758Z,4.95
2023-08-20T07:56:16.225Z,3.70
2023-08-20T07:58:43.556Z,5.10
2023-08-20T08:01:11.105Z,7.07
2023-08-20T08:03:38.675Z,6.05
2023-08-20T08:06:06.153Z,6.00
2023-08-20T08:08:33.612Z,5.22
2023-08-20T08:11:01.191Z,3.85
2023-08-20T08:13:28.721Z,3.72
2023-08-20T08:15:56.068Z,5.07
2023-08-20T08:18:23.612Z,5.28
2023-08-20T08:20:52.541Z,5.38
2023-08-20T08:23:19.900Z,5.18
2023-08-20T08:25:47.511Z,5.55
2023-08-20T08:28:14.997Z,4.28
2023-08-20T08:30:42.449Z,5.63
2023-08-20T08:33:10.026Z,4.28
2023-08-20T08:35:37.865Z,4.72
2023-08-20T08:38:06.522Z,5.45
2023-08-20T08:40:34.776Z,5.63
2023-08-20T08:43:03.314Z,6.47
2023-08-20T08:45:34.230Z,4.88
2023-08-20T08:48:04.743Z,3.97
2023-08-20T08:50:33.959Z,4.50
2023-08-20T08:53:02.169Z,3.70
2023-08-20T08:55:29.729Z,4.70
2023-08-20T08:57:57.109Z,4.05
2023-08-20T09:00:24.608Z,3.58
2023-08-20T09:02:51.977Z,3.80
2023-08-20T09:05:19.488Z,3.10
2023-08-20T09:07:46.929Z,2.63
2023-08-20T09:10:19.549Z,2.33
2023-08-20T09:12:49.439Z,2.92
2023-08-20T09:15:16.818Z,2.85
2023-08-20T09:17:44.387Z,2.22
2023-08-20T09:20:12.228Z,2.10
2023-08-20T09:22:39.736Z,1.55
2023-08-20T09:25:07.973Z,2.60
2023-08-20T09:27:43.955Z,2.30
2023-08-20T09:30:21.471Z,1.80
2023-08-20T09:33:11.161Z,2.03
2023-08-20T09:35:38.982Z,1.80
2023-08-20T09:38:06.812Z,1.90
2023-08-20T09:40:34.238Z,1.52
2023-08-20T09:43:04.670Z,1.30
2023-08-20T09:45:32.666Z,1.38
2023-08-20T09:48:06.846Z,1.80
2023-08-20T09:50:40.403Z,1.83
2023-08-20T09:53:38.767Z,1.60
2023-08-20T09:56:31.425Z,1.60
2023-08-20T09:59:03.558Z,1.10
2023-08-20T10:01:32.013Z,1.48
2023-08-20T10:04:01.064Z,1.35
2023-08-20T10:06:31.219Z,1.90
2023-08-20T10:09:00.394Z,1.80
2023-08-20T10:11:28.388Z,0.88
2023-08-20T10:13:56.010Z,1.20
2023-08-20T10:16:25.179Z,0.80
2023-08-20T10:18:52.858Z,1.35
2023-08-20T10:21:26.260Z,1.00
2023-08-20T10:23:54.359Z,0.88
2023-08-20T10:26:25.614Z,0.80
2023-08-20T10:29:31.498Z,1.00
2023-08-20T10:31:58.897Z,0.85
2023-08-20T10:34:39.520Z,1.10
2023-08-20T10:37:14.677Z,0.75
2023-08-20T10:39:46.886Z,1.00
2023-08-20T10:42:17.131Z,1.42
2023-08-20T10:45:10.160Z,1.00
2023-08-20T10:47:49.786Z,1.20
2023-08-20T10:50:21.794Z,1.08
2023-08-20T10:52:56.314Z,1.10
2023-08-20T10:55:25.294Z,0.80
2023-08-20T10:58:00.986Z,1.10
2023-08-20T11:00:29.566Z,1.02
2023-08-20T11:03:00.226Z,1.20
2023-08-20T11:05:28.377Z,1.00
2023-08-20T11:07:56.012Z,1.38
2023-08-20T11:10:23.448Z,1.42
2023-08-20T11:12:50.757Z,1.33
2023-08-20T11:15:18.366Z,1.05
2023-08-20T11:17:51.528Z,1.30
2023-08-20T11:20:19.746Z,1.23
2023-08-20T11:22:47.234Z,1.50
2023-08-20T11:25:14.626Z,1.70
2023-08-20T11:27:45.619Z,1.10
2023-08-20T11:30:14.718Z,1.23
2023-08-20T11:32:44.059Z,1.00
2023-08-20T11:35:12.360Z,1.17
2023-08-20T11:37:41.515Z,1.40
2023-08-20T11:40:10.325Z,1.40
2023-08-20T11:42:37.927Z,1.42
2023-08-20T11:45:06.531Z,1.48
2023-08-20T11:47:43.718Z,1.45
2023-08-20T11:50:11.725Z,1.58
2023-08-20T11:52:40.952Z,1.30
2023-08-20T11:55:10.309Z,1.20
2023-08-20T11:57:38.024Z,1.48
2023-08-20T12:00:14.303Z,1.42
2023-08-20T12:02:45.075Z,1.52
2023-08-20T12:05:13.415Z,1.40
2023-08-20T12:07:41.057Z,1.80
2023-08-20T12:10:22.843Z,1.85
2023-08-20T12:12:51.340Z,1.63
2023-08-20T12:15:20.306Z,1.50
2023-08-20T12:18:08.019Z,1.67
2023-08-20T12:20:37.470Z,1.50
2023-08-20T12:23:07.977Z,1.40
2023-08-20T12:25:37.028Z,1.75
2023-08-20T12:28:08.481Z,2.40
2023-08-20T12:30:38.958Z,1.67
2023-08-20T12:33:07.944Z,1.60
2023-08-20T12:35:36.740Z,1.83
2023-08-20T12:38:05.296Z,1.60
2023-08-20T12:40:32.838Z,1.55
2023-08-20T12:43:00.203Z,1.83
2023-08-20T12:45:27.636Z,1.77
2023-08-20T12:47:55.258Z,1.75
2023-08-20T12:50:22.763Z,1.58
2023-08-20T12:52:52.050Z,1.80
2023-08-20T12:55:19.624Z,1.75
2023-08-20T12:58:00.530Z,1.60
2023-08-20T13:00:28.757Z,1.65
2023-08-20T13:02:57.885Z,1.88
2023-08-20T13:05:27.192Z,2.30
2023-08-20T13:07:55.406Z,1.67
2023-08-20T13:10:24.147Z,2.17
2023-08-20T13:12:59.924Z,1.60
2023-08-20T13:15:28.754Z,1.70
2023-08-20T13:17:56.784Z,1.75
2023-08-20T13:20:25.936Z,2.13
2023-08-20T13:22:54.408Z,1.70
2023-08-20T13:25:22.714Z,1.50
2023-08-20T13:27:50.847Z,1.90
2023-08-20T13:30:19.073Z,1.67
2023-08-20T13:32:46.641Z,2.00
2023-08-20T13:35:15.672Z,2.05
2023-08-20T13:37:43.623Z,1.63
2023-08-20T13:40:12.847Z,1.63
2023-08-20T13:42:40.171Z,1.50
2023-08-20T13:45:08.859Z,1.75
2023-08-20T13:47:36.508Z,2.15
2023-08-20T13:50:05.844Z,2.05
2023-08-20T13:52:33.365Z,1.88
2023-08-20T13:55:00.841Z,1.67
2023-08-20T13:57:28.255Z,1.88
2023-08-20T13:59:56.673Z,2.17
2023-08-20T14:02:24.129Z,1.98
2023-08-20T14:04:52.050Z,2.28
2023-08-20T14:07:20.008Z,2.00
2023-08-20T14:09:47.488Z,1.83
2023-08-20T14:12:14.866Z,1.90
2023-08-20T14:14:42.358Z,1.83
2023-08-20T14:17:10.554Z,1.33
2023-08-20T14:19:37.933Z,1.88
2023-08-20T14:22:05.369Z,2.00
2023-08-20T14:24:32.916Z,2.15
2023-08-20T14:27:00.291Z,1.65
2023-08-20T14:29:29.247Z,1.77
2023-08-20T14:31:56.597Z,1.50
2023-08-20T14:34:24.004Z,1.63
2023-08-20T14:36:52.754Z,1.40
2023-08-20T14:39:21.691Z,1.85
2023-08-20T14:41:49.006Z,1.95
2023-08-20T14:44:16.464Z,1.95
2023-08-20T14:46:43.824Z,2.13
2023-08-20T14:49:11.189Z,1.60
2023-08-20T14:51:38.542Z,1.75
2023-08-20T14:54:06.274Z,2.05
2023-08-20T14:56:33.752Z,1.83
2023-08-20T14:59:01.167Z,1.92
2023-08-20T15:01:28.688Z,1.33
2023-08-20T15:03:56.070Z,2.40
2023-08-20T15:06:25.805Z,2.13
2023-08-20T15:08:54.324Z,2.03
2023-08-20T15:11:21.766Z,2.35
2023-08-20T15:13:49.190Z,1.58
2023-08-20T15:16:16.581Z,1.50
2023-08-20T15:18:43.893Z,2.03
2023-08-20T15:21:12.828Z,1.63
2023-08-20T15:23:40.305Z,2.22
2023-08-20T15:26:08.672Z,1.58
2023-08-20T15:28:36.104Z,2.78
2023-08-20T15:31:03.606Z,2.53
2023-08-20T15:33:31.471Z,2.20
2023-08-20T15:36:00.567Z,1.67
2023-08-20T15:38:29.023Z,2.13
2023-08-20T15:40:56.710Z,2.63
2023-08-20T15:43:24.090Z,2.30
2023-08-20T15:45:51.633Z,2.35
2023-08-20T15:48:19.328Z,2.30
2023-08-20T15:50:46.810Z,2.22
2023-08-20T15:53:14.938Z,1.95
2023-08-20T15:55:42.448Z,2.00
2023-08-20T15:58:09.856Z,1.75
2023-08-20T16:00:37.517Z,2.22
2023-08-20T16:03:05.574Z,1.90
2023-08-20T16:05:33.078Z,1.83
2023-08-20T16:08:00.418Z,2.00
2023-08-20T16:10:27.779Z,2.42
2023-08-20T16:12:55.142Z,2.42
2023-08-20T16:15:22.546Z,2.33
2023-08-20T16:17:50.019Z,2.67
2023-08-20T16:20:17.470Z,1.90
2023-08-20T16:22:46.259Z,1.77
2023-08-20T16:25:13.659Z,2.35
2023-08-20T16:27:41.368Z,2.33
2023-08-20T16:30:11.811Z,2.35
2023-08-20T16:32:40.025Z,2.25
2023-08-20T16:35:08.625Z,2.40
2023-08-20T16:37:36.344Z,2.10
2023-08-20T16:40:09.021Z,2.17
2023-08-20T16:42:36.653Z,2.40
2023-08-20T16:45:04.649Z,2.30
2023-08-20T16:47:32.062Z,2.58
2023-08-20T16:49:59.418Z,1.90
2023-08-20T16:52:26.803Z,1.85
2023-08-20T16:54:55.899Z,2.15
2023-08-20T16:57:24.076Z,2.00
2023-08-20T16:59:53.318Z,1.92
2023-08-20T17:02:21.423Z,2.30
2023-08-20T17:04:50.608Z,2.30
2023-08-20T17:07:18.257Z,2.45
2023-08-20T17:09:45.837Z,2.38
2023-08-20T17:12:13.682Z,1.73
2023-08-20T17:14:41.552Z,1.92
2023-08-20T17:17:10.457Z,2.00
2023-08-20T17:19:37.830Z,1.90
2023-08-20T17:22:05.499Z,2.58
2023-08-20T17:24:33.229Z,2.40
2023-08-20T17:27:00.928Z,2.75
2023-08-20T17:29:28.689Z,1.90
2023-08-20T17:31:56.162Z,1.85
2023-08-20T17:34:23.768Z,1.80
2023-08-20T17:36:51.225Z,2.20
2023-08-20T17:39:21.330Z,2.25
2023-08-20T17:41:48.774Z,2.38
2023-08-20T17:44:16.235Z,2.47
2023-08-20T17:46:49.563Z,2.10
2023-08-20T17:49:20.456Z,2.33
2023-08-20T17:51:49.010Z,2.05
2023-08-20T17:54:17.508Z,2.10
2023-08-20T17:56:44.879Z,3.00
2023-08-20T17:59:12.269Z,2.40
2023-08-20T18:01:39.992Z,2.22
2023-08-20T18:04:07.514Z,2.10
2023-08-20T18:06:34.918Z,2.20
2023-08-20T18:09:02.320Z,2.13
2023-08-20T18:11:29.743Z,2.50
2023-08-20T18:13:57.128Z,2.33
2023-08-20T18:16:24.584Z,2.53
2023-08-20T18:18:52.076Z,2.25
2023-08-20T18:21:19.526Z,1.90
2023-08-20T18:23:48.280Z,2.80
2023-08-20T18:26:15.782Z,2.55
2023-08-20T18:28:43.133Z,2.50
2023-08-20T18:31:10.784Z,2.55
2023-08-20T18:33:38.208Z,2.95
2023-08-20T18:36:05.923Z,2.20
2023-08-20T18:38:33.938Z,2.38
2023-08-20T18:41:08.272Z,3.08
2023-08-20T18:43:35.664Z,3.17
2023-08-20T18:46:04.465Z,2.90
2023-08-20T18:48:35.057Z,2.95
2023-08-20T18:51:07.336Z,3.58
2023-08-20T18:53:35.619Z,2.72
2023-08-20T18:56:06.374Z,2.80
2023-08-20T18:58:34.866Z,2.80
2023-08-20T19:01:02.933Z,2.78
2023-08-20T19:03:31.355Z,2.55
2023-08-20T19:05:59.051Z,3.22
2023-08-20T19:08:27.083Z,2.80
2023-08-20T19:10:54.545Z,3.17
2023-08-20T19:13:22.022Z,3.25
2023-08-20T19:15:51.475Z,2.50
2023-08-20T19:18:19.554Z,2.90
2023-08-20T19:20:56.248Z,2.70
2023-08-20T19:23:24.598Z,2.58
2023-08-20T19:25:52.409Z,3.17
2023-08-20T19:28:19.811Z,3.10
2023-08-20T19:30:54.389Z,3.78
2023-08-20T19:33:25.405Z,3.20
2023-08-20T19:35:52.780Z,3.03
2023-08-20T19:38:20.163Z,4.45
2023-08-20T19:40:48.715Z,4.20
2023-08-20T19:43:16.554Z,3.00
2023-08-20T19:45:44.033Z,3.47
2023-08-20T19:48:12.729Z,3.08
2023-08-20T19:50:41.014Z,3.17
2023-08-20T19:53:08.437Z,3.38
2023-08-20T19:55:35.842Z,3.20
2023-08-20T19:58:04.832Z,3.35
2023-08-20T20:00:32.625Z,2.95
2023-08-20T20:02:59.974Z,3.25
2023-08-20T20:05:30.878Z,3.15
2023-08-20T20:08:03.256Z,3.35
2023-08-20T20:10:30.679Z,3.60
2023-08-20T20:12:58.050Z,3.08
2023-08-20T20:15:25.430Z,2.70
2023-08-20T20:17:52.961Z,3.17
2023-08-20T20:20:23.027Z,4.13
2023-08-20T20:22:51.038Z,3.58
2023-08-20T20:25:18.439Z,3.70
2023-08-20T20:27:47.562Z,3.88
2023-08-20T20:30:15.145Z,3.38
2023-08-20T20:32:42.697Z,3.53
2023-08-20T20:35:10.976Z,3.70
2023-08-20T20:37:42.217Z,3.08
2023-08-20T20:40:10.656Z,3.63
2023-08-20T20:42:38.683Z,4.00
2023-08-20T20:45:07.458Z,3.75
2023-08-20T20:47:39.099Z,3.53
2023-08-20T20:50:08.652Z,3.85
2023-08-20T20:52:37.166Z,3.38
2023-08-20T20:55:06.517Z,3.30
2023-08-20T20:57:33.915Z,3.40
2023-08-20T21:00:01.819Z,3.50
2023-08-20T21:02:29.518Z,3.05
2023-08-20T21:04:57.124Z,2.72
2023-08-20T21:07:25.207Z,3.13
2023-08-20T21:09:52.913Z,4.30
2023-08-20T21:12:20.305Z,2.90
2023-08-20T21:14:47.740Z,3.25
2023-08-20T21:17:15.316Z,3.30
2023-08-20T21:19:42.693Z,3.22
2023-08-20T21:22:16.280Z,3.55
2023-08-20T21:24:44.697Z,3.53
2023-08-20T21:27:12.337Z,3.42
2023-08-20T21:29:41.171Z,4.35
2023-08-20T21:32:10.211Z,3.50
2023-08-20T21:34:39.551Z,3.40
2023-08-20T21:37:06.971Z,3.85
2023-08-20T21:39:34.329Z,3.90
2023-08-20T21:42:01.719Z,3.53
2023-08-20T21:44:30.067Z,3.78
2023-08-20T21:46:57.515Z,3.50
2023-08-20T21:49:25.089Z,3.28
2023-08-20T21:51:53.055Z,4.32
2023-08-20T21:54:20.898Z,2.97
2023-08-20T21:56:52.465Z,3.00
2023-08-20T21:59:20.156Z,3.42
2023-08-20T22:01:47.901Z,4.10
2023-08-20T22:04:15.347Z,3.65
2023-08-20T22:06:42.753Z,3.83
2023-08-20T22:09:10.066Z,3.33
2023-08-20T22:11:37.425Z,3.50
2023-08-20T22:14:04.783Z,3.88
2023-08-20T22:16:32.163Z,2.67
2023-08-20T22:18:59.581Z,3.28
2023-08-20T22:21:26.950Z,2.65
2023-08-20T22:23:54.356Z,4.22
2023-08-20T22:26:21.715Z,3.53
2023-08-20T22:28:49.174Z,3.97
2023-08-20T22:31:16.537Z,4.07
2023-08-20T22:33:43.943Z,4.57
2023-08-20T22:36:11.340Z,3.47
2023-08-20T22:38:39.090Z,4.07
2023-08-20T22:41:06.557Z,4.22
2023-08-20T22:43:34.168Z,3.90
2023-08-20T22:46:01.533Z,5.03
2023-08-20T22:48:28.950Z,3.50
2023-08-20T22:50:56.338Z,3.38
2023-08-20T22:53:23.734Z,3.30
2023-08-20T22:55:52.405Z,4.03
2023-08-20T22:58:20.421Z,3.42
2023-08-20T23:00:49.449Z,4.10
2023-08-20T23:03:16.889Z,4.43
2023-08-20T23:05:44.387Z,3.55
2023-08-20T23:08:12.080Z,3.95
2023-08-20T23:10:39.458Z,3.40
2023-08-20T23:13:06.907Z,4.07
2023-08-20T23:15:34.236Z,5.63
2023-08-20T23:18:01.625Z,4.28
2023-08-20T23:20:29.155Z,4.63
2023-08-20T23:22:56.988Z,4.65
2023-08-20T23:25:24.490Z,4.28
2023-08-20T23:27:51.849Z,4.32
2023-08-20T23:30:19.406Z,4.68
2023-08-20T23:32:53.690Z,4.50
2023-08-20T23:35:21.050Z,4.57
2023-08-20T23:37:48.361Z,4.90
2023-08-20T23:40:16.317Z,3.50
2023-08-20T23:42:45.006Z,4.97
2023-08-20T23:45:12.338Z,4.57
2023-08-20T23:47:39.664Z,4.47
2023-08-20T23:50:09.741Z,3.75
2023-08-20T23:52:37.396Z,3.70
2023-08-20T23:55:05.485Z,5.40
2023-08-20T23:57:32.818Z,4.22
